Observations for LUTON AIRPORT, United Kingdom (EGGW)

EGGW 280520Z AUTO 01007KT 330V040 2900 BR OVC001 14/14 Q0998
EGGW 280450Z AUTO 02007KT 350V060 0700 R26/0600 FG VV/// 13/13 Q0998
EGGW 280420Z AUTO 02007KT 0550 R08/P1500 FG OVC001 13/13 Q0999  
EGGW 280350Z AUTO 02006KT 1200 R08/P1500 BR OVC001 13/13 Q0999  
EGGW 280320Z AUTO 02007KT 1400 R08/P1500 -RADZ OVC001 13/13 Q0999   
EGGW 280250Z AUTO 02009KT 2400 -DZ OVC001 13/13 Q0999   
EGGW 280220Z AUTO 02007KT 5000 -DZ OVC002 13/13 Q0999   
EGGW 280150Z AUTO 01006KT 5000 -RADZ OVC002 13/13 Q1000 
EGGW 280120Z AUTO 02006KT 6000 -RA OVC002 13/13 Q1000 RERA  
EGGW 280050Z AUTO 02007KT 3900 RA OVC002/// //////TCU 13/13 Q1001   
EGGW 280020Z AUTO 02007KT 3800 -RADZ OVC002/// //////TCU 13/13 Q1001 RERA   
EGGW 272350Z AUTO 02005KT 3100 -RA OVC002 13/13 Q1001 RERA  
EGGW 272320Z AUTO 03005KT 2800 -RA BKN002 13/13 Q1002 RERA  
EGGW 272250Z AUTO 04005KT 350V060 3000 -RA FEW003 SCT031 13/13 Q1002
EGGW 272220Z AUTO 05006KT 2800 -RADZ BKN002 13/13 Q1002 
EGGW 272150Z AUTO 06006KT 3500 -RADZ OVC002 13/13 Q1003 RERA
EGGW 272120Z AUTO 07006KT 4000 -RA BKN003/// OVC016/// //////TCU 14/13 Q1003
EGGW 272050Z AUTO 07006KT 4400 -RA BKN003/// BKN013/// //////TCU 14/13 Q1003
EGGW 272020Z AUTO 06006KT 5000 -RA BKN003/// //////TCU 14/14 Q1003 RERA 
EGGW 271950Z AUTO 06007KT 4600 RA BKN003/// BKN020/// //////TCU 14/14 Q1003 
EGGW 271920Z AUTO 05007KT 3700 RA BKN003 BKN017 14/14 Q1004 
EGGW 271850Z AUTO 07006KT 4900 -RA BKN004 OVC015 14/14 Q1004
EGGW 271820Z 08005KT 6000 -RA OVC006 14/14 Q1004
EGGW 271750Z AUTO 07008KT 030V090 7000 -RA BKN006 OVC014 14/14 Q1004
EGGW 271720Z AUTO 07007KT 7000 -RA BKN005 15/14 Q1004   
EGGW 271650Z AUTO 08006KT 8000 -RA BKN005/// OVC015/// //////CB 15/14 Q1004 
EGGW 271620Z AUTO 08006KT 050V110 9999 -RA OVC007/// //////CB 15/14 Q1005   
EGGW 271550Z AUTO 08007KT 9999 -RA SCT008/// OVC020/// //////CB 16/14 Q1005 
EGGW 271520Z AUTO 06009KT 9999 SCT008/// OVC019/// //////TCU 16/14 Q1005
EGGW 271450Z AUTO 06009KT 9999 SCT009/// OVC021/// //////TCU 16/14 Q1006
EGGW 271420Z AUTO 07009KT 030V100 9999 SCT008/// OVC021/// //////TCU 16/14 Q1006
EGGW 271350Z AUTO 07010KT 9999 BKN008/// BKN022/// OVC040/// //////CB 16/15 Q1006   
EGGW 271320Z AUTO 07009KT 9999 -RA SCT009/// BKN020/// OVC047/// 16/15 Q1006
EGGW 271250Z AUTO 07008KT 9999 BKN011/// OVC034/// //////CB 16/14 Q1006 
EGGW 271220Z AUTO 09009KT 9999 BKN013/// OVC022/// //////CB 17/13 Q1007 
EGGW 271150Z AUTO 08008KT 9999 BKN015/// //////CB 18/14 Q1007   
EGGW 271120Z AUTO 10007KT 070V130 9999 BKN017/// BKN038/// //////CB 17/13 Q1007 
EGGW 271050Z AUTO 10007KT 9999 FEW018/// OVC040/// //////CB 17/13 Q1007 
EGGW 271020Z AUTO 11008KT 9999 OVC042/// //////CB 17/13 Q1007   
EGGW 270950Z AUTO 10007KT 9999 OVC044/// //////CB 16/13 Q1007   
EGGW 270920Z AUTO 11009KT 9999 FEW028/// OVC045/// //////TCU 15/12 Q1007
EGGW 270850Z AUTO 12011KT 9999 NCD 16/11 Q1008  
EGGW 270820Z AUTO 11011KT 9999 NCD 16/12 Q1008  
EGGW 270750Z AUTO 11010KT 9999 NCD 16/12 Q1008  
EGGW 270720Z AUTO 10009KT 9999 FEW037 15/11 Q1008   
EGGW 270650Z AUTO 11009KT 9999 NCD 15/11 Q1009  
EGGW 270620Z AUTO 11007KT 9999 SCT039 14/11 Q1009   
EGGW 270550Z AUTO 11008KT 9999 SCT041 14/11 Q1009   
EGGW 270520Z AUTO 11007KT 9999 BKN038 14/10 Q1009   
EGGW 270450Z AUTO 10008KT 9999 FEW038 13/10 Q1010